createdAt,value
2023-02-09T00:02:45.034Z,-5.46
2023-02-09T00:07:46.721Z,-5.44
2023-02-09T00:13:11.025Z,-5.41
2023-02-09T00:18:12.657Z,-5.36
2023-02-09T00:23:14.318Z,-5.34
2023-02-09T00:28:16.053Z,-5.30
2023-02-09T00:33:17.976Z,-5.28
2023-02-09T00:38:19.647Z,-5.30
2023-02-09T00:43:21.902Z,-5.35
2023-02-09T00:48:29.471Z,-5.40
2023-02-09T00:53:31.262Z,-5.44
2023-02-09T00:58:33.043Z,-5.46
2023-02-09T01:03:34.790Z,-5.46
2023-02-09T01:08:37.097Z,-5.47
2023-02-09T01:13:40.077Z,-5.51
2023-02-09T01:18:42.900Z,-5.51
2023-02-09T01:23:45.716Z,-5.54
2023-02-09T01:28:52.677Z,-5.61
2023-02-09T01:33:56.611Z,-5.69
2023-02-09T01:39:00.853Z,-5.74
2023-02-09T01:44:03.934Z,-5.76
2023-02-09T01:49:16.239Z,-5.77
2023-02-09T01:54:26.061Z,-5.80
2023-02-09T01:59:29.178Z,-5.83
2023-02-09T02:04:30.967Z,-5.90
2023-02-09T02:09:32.652Z,-5.97
2023-02-09T02:14:39.642Z,-5.99
2023-02-09T02:20:12.649Z,-6.00
2023-02-09T02:26:07.013Z,-6.04
2023-02-09T02:31:25.407Z,-6.05
2023-02-09T02:36:55.522Z,-6.03
2023-02-09T02:42:33.926Z,-6.05
2023-02-09T02:47:39.681Z,-6.10
2023-02-09T02:52:46.402Z,-6.10
2023-02-09T02:57:54.733Z,-6.09
2023-02-09T03:03:01.615Z,-6.11
2023-02-09T03:08:03.338Z,-6.17
2023-02-09T03:13:10.813Z,-6.24
2023-02-09T03:18:40.358Z,-6.27
2023-02-09T03:24:03.127Z,-6.35
2023-02-09T03:29:06.457Z,-6.41
2023-02-09T03:34:10.064Z,-6.44
2023-02-09T03:39:11.762Z,-6.48
2023-02-09T03:44:29.040Z,-6.47
2023-02-09T03:49:34.155Z,-6.52
2023-02-09T03:54:35.985Z,-6.58
2023-02-09T03:59:38.171Z,-6.64
2023-02-09T04:04:40.005Z,-6.71
2023-02-09T04:09:41.675Z,-6.72
2023-02-09T04:14:43.248Z,-6.71
2023-02-09T04:19:44.937Z,-6.71
2023-02-09T04:24:46.703Z,-6.70
2023-02-09T04:29:48.421Z,-6.71
2023-02-09T04:34:50.051Z,-6.72
2023-02-09T04:39:51.848Z,-6.72
2023-02-09T04:44:53.564Z,-6.73
2023-02-09T04:49:55.319Z,-6.74
2023-02-09T04:54:57.072Z,-6.76
2023-02-09T04:59:58.675Z,-6.78
2023-02-09T05:05:00.332Z,-6.80
2023-02-09T05:10:02.087Z,-6.87
2023-02-09T05:15:04.140Z,-6.93
2023-02-09T05:20:07.230Z,-7.01
2023-02-09T05:25:09.553Z,-7.08
2023-02-09T05:30:11.652Z,-7.11
2023-02-09T05:35:13.801Z,-7.13
2023-02-09T05:40:15.971Z,-7.17
2023-02-09T05:45:17.749Z,-7.18
2023-02-09T05:50:19.378Z,-7.19
2023-02-09T05:55:21.054Z,-7.23
2023-02-09T06:00:25.121Z,-7.28
2023-02-09T06:05:27.355Z,-7.29
2023-02-09T06:10:29.085Z,-7.26
2023-02-09T06:15:30.902Z,-7.25
2023-02-09T06:20:32.952Z,-7.22
2023-02-09T06:25:34.692Z,-7.16
2023-02-09T06:30:36.620Z,-7.09
2023-02-09T06:35:38.420Z,-7.02
2023-02-09T06:40:40.164Z,-6.92
2023-02-09T06:45:42.463Z,-6.70
2023-02-09T06:50:44.731Z,-6.37
2023-02-09T06:55:46.756Z,-6.05
2023-02-09T07:00:48.606Z,-5.40
2023-02-09T07:05:50.547Z,-4.48
2023-02-09T07:10:52.232Z,-3.69
2023-02-09T07:15:58.560Z,-2.94
2023-02-09T07:21:05.188Z,-2.28
2023-02-09T07:26:10.559Z,-1.39
2023-02-09T07:31:14.531Z,-0.63
2023-02-09T07:36:17.154Z,-0.77
2023-02-09T07:41:21.812Z,-1.47
2023-02-09T07:46:25.388Z,-1.99
2023-02-09T07:51:28.759Z,-2.32
2023-02-09T07:56:30.740Z,-2.49
2023-02-09T08:01:34.029Z,-2.51
2023-02-09T08:06:43.538Z,-1.15
2023-02-09T08:12:01.622Z,0.64
2023-02-09T08:17:19.962Z,2.12
2023-02-09T08:22:23.440Z,3.20
2023-02-09T08:27:25.983Z,3.95
2023-02-09T08:32:27.667Z,4.65
2023-02-09T08:37:29.410Z,4.98
2023-02-09T08:42:31.244Z,5.14
2023-02-09T08:47:32.980Z,5.25
2023-02-09T08:52:34.655Z,5.49
2023-02-09T08:57:43.914Z,5.51
2023-02-09T09:02:46.405Z,5.43
2023-02-09T09:07:48.309Z,5.49
2023-02-09T09:12:51.580Z,5.62
2023-02-09T09:17:53.237Z,5.50
2023-02-09T09:22:59.259Z,5.37
2023-02-09T09:28:01.100Z,5.12
2023-02-09T09:33:03.132Z,4.47
2023-02-09T09:38:04.926Z,3.92
2023-02-09T09:43:44.078Z,3.52
2023-02-09T09:48:50.104Z,3.14
2023-02-09T09:53:55.353Z,2.82
2023-02-09T09:58:57.588Z,2.60
2023-02-09T10:04:09.239Z,2.42
2023-02-09T10:09:42.345Z,2.30
2023-02-09T10:14:44.113Z,2.21
2023-02-09T10:20:04.936Z,2.12
2023-02-09T10:25:36.907Z,2.07
2023-02-09T10:30:38.549Z,2.11
2023-02-09T10:35:51.487Z,2.13
2023-02-09T10:40:54.443Z,2.16
2023-02-09T10:45:59.651Z,2.18
2023-02-09T10:51:07.407Z,2.23
2023-02-09T10:56:21.894Z,2.23
2023-02-09T11:01:27.987Z,2.32
2023-02-09T11:06:41.353Z,2.41
2023-02-09T11:11:44.181Z,2.45
2023-02-09T11:17:16.702Z,2.45
2023-02-09T11:23:04.712Z,2.48
2023-02-09T11:28:29.033Z,2.55
2023-02-09T11:34:00.402Z,2.60
2023-02-09T11:39:09.517Z,2.62
2023-02-09T11:44:17.893Z,2.68
2023-02-09T11:49:26.960Z,2.69
2023-02-09T11:54:33.242Z,2.71
2023-02-09T11:59:44.066Z,2.71
2023-02-09T12:05:01.599Z,2.73
2023-02-09T12:10:22.232Z,2.75
2023-02-09T12:15:38.447Z,2.76
2023-02-09T12:20:40.039Z,2.79
2023-02-09T12:25:41.626Z,2.83
2023-02-09T12:30:43.329Z,2.84
2023-02-09T12:36:08.044Z,2.86
2023-02-09T12:41:12.999Z,2.84
2023-02-09T12:46:20.990Z,2.84
2023-02-09T12:52:01.122Z,2.82
2023-02-09T12:57:14.698Z,2.81
2023-02-09T13:02:48.378Z,2.84
2023-02-09T13:07:56.458Z,2.85
2023-02-09T13:13:18.485Z,2.85
2023-02-09T13:18:29.099Z,2.83
2023-02-09T13:23:46.066Z,2.80
2023-02-09T13:28:48.072Z,2.77
2023-02-09T13:33:55.738Z,2.73
2023-02-09T13:38:58.189Z,2.71
2023-02-09T13:43:59.997Z,2.70
2023-02-09T13:49:18.959Z,2.67
2023-02-09T13:54:21.109Z,2.63
2023-02-09T13:59:22.920Z,2.61
2023-02-09T14:04:34.458Z,2.56
2023-02-09T14:10:10.338Z,2.52
2023-02-09T14:15:33.380Z,2.48
2023-02-09T14:20:35.132Z,2.45
2023-02-09T14:25:37.143Z,2.42
2023-02-09T14:30:49.605Z,2.39
2023-02-09T14:35:59.032Z,2.35
2023-02-09T14:41:37.535Z,2.30
2023-02-09T14:47:01.594Z,2.23
2023-02-09T14:52:15.045Z,2.14
2023-02-09T14:57:17.219Z,2.06
2023-02-09T15:02:22.252Z,2.00
2023-02-09T15:07:32.608Z,1.94
2023-02-09T15:12:34.255Z,1.85
2023-02-09T15:17:35.906Z,1.77
2023-02-09T15:22:37.553Z,1.66
2023-02-09T15:27:55.867Z,1.54
2023-02-09T15:32:57.557Z,1.41
2023-02-09T15:38:01.089Z,1.28
2023-02-09T15:43:21.481Z,1.13
2023-02-09T15:48:23.144Z,0.99
2023-02-09T15:53:26.721Z,0.86
2023-02-09T15:58:37.634Z,0.71
2023-02-09T16:03:39.391Z,0.58
2023-02-09T16:08:42.776Z,0.47
2023-02-09T16:13:44.341Z,0.33
2023-02-09T16:18:47.209Z,0.18
2023-02-09T16:23:49.206Z,0.01
2023-02-09T16:28:51.851Z,-0.16
2023-02-09T16:33:53.561Z,-0.31
2023-02-09T16:38:55.233Z,-0.41
2023-02-09T16:43:56.908Z,-0.48
2023-02-09T16:49:01.429Z,-0.51
2023-02-09T16:54:05.061Z,-0.55
2023-02-09T16:59:06.709Z,-0.55
2023-02-09T17:04:13.751Z,-0.57
2023-02-09T17:09:16.094Z,-0.59
2023-02-09T17:14:17.788Z,-0.62
2023-02-09T17:19:19.575Z,-0.60
2023-02-09T17:24:21.270Z,-0.61
2023-02-09T17:29:22.865Z,-0.66
2023-02-09T17:34:27.193Z,-0.69
2023-02-09T17:39:30.735Z,-0.73
2023-02-09T17:44:45.678Z,-0.74
2023-02-09T17:49:48.396Z,-0.78
2023-02-09T17:54:50.908Z,-0.83
2023-02-09T17:59:52.677Z,-0.91
2023-02-09T18:04:54.304Z,-0.99
2023-02-09T18:09:56.632Z,-1.02
2023-02-09T18:14:59.106Z,-1.05
2023-02-09T18:20:00.925Z,-1.09
2023-02-09T18:25:02.703Z,-1.17
2023-02-09T18:30:05.140Z,-1.23
2023-02-09T18:35:07.520Z,-1.26
2023-02-09T18:40:09.638Z,-1.31
2023-02-09T18:45:16.724Z,-1.39
2023-02-09T18:50:25.762Z,-1.43
2023-02-09T18:55:29.716Z,-1.43
2023-02-09T19:00:32.676Z,-1.37
2023-02-09T19:05:34.860Z,-1.34
2023-02-09T19:10:36.610Z,-1.33
2023-02-09T19:15:39.124Z,-1.33
2023-02-09T19:20:40.845Z,-1.32
2023-02-09T19:25:42.832Z,-1.30
2023-02-09T19:30:44.967Z,-1.29
2023-02-09T19:35:55.505Z,-1.29
2023-02-09T19:41:10.338Z,-1.30
2023-02-09T19:46:13.199Z,-1.32
2023-02-09T19:51:15.801Z,-1.30
2023-02-09T19:56:23.514Z,-1.30
2023-02-09T20:01:26.854Z,-1.31
2023-02-09T20:06:30.909Z,-1.32
2023-02-09T20:11:33.676Z,-1.33
2023-02-09T20:16:35.422Z,-1.28
2023-02-09T20:21:37.473Z,-1.23
2023-02-09T20:26:39.254Z,-1.22
2023-02-09T20:31:42.171Z,-1.27
2023-02-09T20:36:45.658Z,-1.31
2023-02-09T20:42:07.230Z,-1.35
2023-02-09T20:47:09.025Z,-1.36
2023-02-09T20:52:11.214Z,-1.38
2023-02-09T20:57:12.993Z,-1.40
2023-02-09T21:02:16.056Z,-1.44
2023-02-09T21:07:20.044Z,-1.45
2023-02-09T21:12:22.267Z,-1.45
2023-02-09T21:17:24.134Z,-1.46
2023-02-09T21:22:27.224Z,-1.46
2023-02-09T21:27:29.392Z,-1.43
2023-02-09T21:32:34.879Z,-1.43
2023-02-09T21:37:38.887Z,-1.43
2023-02-09T21:42:41.046Z,-1.44
2023-02-09T21:47:42.670Z,-1.49
2023-02-09T21:52:44.286Z,-1.53
2023-02-09T21:57:46.104Z,-1.59
2023-02-09T22:02:52.731Z,-1.62
2023-02-09T22:07:54.466Z,-1.60
2023-02-09T22:13:08.441Z,-1.60
2023-02-09T22:18:10.963Z,-1.63
2023-02-09T22:23:12.978Z,-1.63
2023-02-09T22:28:14.906Z,-1.65
2023-02-09T22:33:20.567Z,-1.66
2023-02-09T22:38:22.150Z,-1.66
2023-02-09T22:43:23.787Z,-1.67
2023-02-09T22:48:26.122Z,-1.67
2023-02-09T22:53:27.804Z,-1.66
2023-02-09T22:58:29.645Z,-1.62
2023-02-09T23:03:31.711Z,-1.59
2023-02-09T23:08:33.827Z,-1.61
2023-02-09T23:13:36.936Z,-1.67
2023-02-09T23:18:40.371Z,-1.73
2023-02-09T23:23:42.320Z,-1.80
2023-02-09T23:28:44.566Z,-1.90
2023-02-09T23:33:46.626Z,-1.97
2023-02-09T23:38:53.817Z,-2.04
2023-02-09T23:43:56.354Z,-2.11
2023-02-09T23:48:58.406Z,-2.13
2023-02-09T23:54:03.234Z,-2.07
2023-02-09T23:59:07.505Z,-1.95
